createdAt,value
2023-04-15T00:01:10.690Z,100529.28
2023-04-15T00:03:37.968Z,100527.38
2023-04-15T00:06:05.286Z,100529.28
2023-04-15T00:08:33.496Z,100533.59
2023-04-15T00:11:03.158Z,100535.59
2023-04-15T00:13:30.218Z,100527.69
2023-04-15T00:15:57.127Z,100537.41
2023-04-15T00:18:24.932Z,100529.63
2023-04-15T00:20:52.556Z,100532.22
2023-04-15T00:23:21.158Z,100537.34
2023-04-15T00:25:47.840Z,100528.34
2023-04-15T00:28:14.714Z,100533.59
2023-04-15T00:30:43.760Z,100535.50
2023-04-15T00:33:12.418Z,100528.50
2023-04-15T00:35:39.496Z,100529.91
2023-04-15T00:38:08.120Z,100542.25
2023-04-15T00:40:35.538Z,100529.38
2023-04-15T00:43:02.670Z,100544.38
2023-04-15T00:45:30.291Z,100539.38
2023-04-15T00:47:57.303Z,100540.28
2023-04-15T00:50:24.089Z,100536.69
2023-04-15T00:52:50.825Z,100539.03
2023-04-15T00:55:17.522Z,100542.41
2023-04-15T00:57:44.765Z,100532.66
2023-04-15T01:00:12.209Z,100525.06
2023-04-15T01:02:39.685Z,100524.41
2023-04-15T01:05:08.124Z,100524.59
2023-04-15T01:07:34.932Z,100525.31
2023-04-15T01:10:04.484Z,100522.97
2023-04-15T01:12:34.564Z,100518.03
2023-04-15T01:15:03.191Z,100522.53
2023-04-15T01:17:31.856Z,100524.19
2023-04-15T01:19:58.894Z,100521.31
2023-04-15T01:22:26.740Z,100526.00
2023-04-15T01:25:11.595Z,100535.16
2023-04-15T01:27:40.960Z,100527.53
2023-04-15T01:30:09.175Z,100530.38
2023-04-15T01:32:36.390Z,100527.81
2023-04-15T01:35:03.262Z,100531.53
2023-04-15T01:37:30.997Z,100531.69
2023-04-15T01:39:58.513Z,100536.63
2023-04-15T01:42:26.398Z,100528.47
2023-04-15T01:44:53.726Z,100529.66
2023-04-15T01:47:20.794Z,100533.56
2023-04-15T01:49:47.793Z,100531.66
2023-04-15T01:52:15.966Z,100530.22
2023-04-15T01:54:42.639Z,100531.72
2023-04-15T01:57:09.868Z,100532.16
2023-04-15T01:59:37.323Z,100535.34
2023-04-15T02:02:05.456Z,100531.06
2023-04-15T02:04:35.532Z,100534.13
2023-04-15T02:07:02.373Z,100527.38
2023-04-15T02:09:29.277Z,100517.50
2023-04-15T02:11:56.576Z,100529.56
2023-04-15T02:14:23.828Z,100529.81
2023-04-15T02:16:50.564Z,100526.31
2023-04-15T02:19:17.593Z,100520.94
2023-04-15T02:21:47.168Z,100530.69
2023-04-15T02:24:17.900Z,100531.84
2023-04-15T02:26:46.628Z,100532.09
2023-04-15T02:29:13.304Z,100531.16
2023-04-15T02:31:42.248Z,100540.59
2023-04-15T02:34:09.427Z,100540.81
2023-04-15T02:36:36.426Z,100552.66
2023-04-15T02:39:05.932Z,100550.59
2023-04-15T02:41:32.695Z,100557.13
2023-04-15T02:43:59.745Z,100564.81
2023-04-15T02:46:30.310Z,100564.38
2023-04-15T02:48:57.093Z,100559.78
2023-04-15T02:51:24.534Z,100565.50
2023-04-15T02:53:51.275Z,100572.22
2023-04-15T02:56:19.507Z,100573.38
2023-04-15T02:58:46.636Z,100576.84
2023-04-15T03:01:16.533Z,100578.38
2023-04-15T03:03:43.639Z,100576.44
2023-04-15T03:06:10.758Z,100587.25
2023-04-15T03:08:37.406Z,100582.72
2023-04-15T03:11:05.022Z,100587.13
2023-04-15T03:13:33.773Z,100582.16
2023-04-15T03:16:09.985Z,100582.91
2023-04-15T03:18:36.853Z,100575.31
2023-04-15T03:21:05.003Z,100580.81
2023-04-15T03:23:34.949Z,100585.06
2023-04-15T03:26:04.902Z,100583.81
2023-04-15T03:28:33.413Z,100589.81
2023-04-15T03:31:01.063Z,100583.63
2023-04-15T03:33:28.118Z,100590.63
2023-04-15T03:35:54.930Z,100579.34
2023-04-15T03:38:21.603Z,100591.31
2023-04-15T03:40:48.310Z,100590.31
2023-04-15T03:43:15.319Z,100599.06
2023-04-15T03:45:42.196Z,100599.16
2023-04-15T03:48:17.173Z,100602.31
2023-04-15T03:50:46.524Z,100614.53
2023-04-15T03:53:13.190Z,100611.84
2023-04-15T03:55:40.275Z,100614.13
2023-04-15T03:58:06.951Z,100614.50
2023-04-15T04:00:33.484Z,100616.06
2023-04-15T04:03:02.298Z,100619.25
2023-04-15T04:05:29.557Z,100630.25
2023-04-15T04:07:56.645Z,100631.44
2023-04-15T04:10:23.232Z,100628.78
2023-04-15T04:12:50.004Z,100640.72
2023-04-15T04:15:17.013Z,100640.94
2023-04-15T04:17:43.812Z,100639.31
2023-04-15T04:20:13.757Z,100636.78
2023-04-15T04:22:41.275Z,100641.34
2023-04-15T04:25:10.149Z,100642.25
2023-04-15T04:27:36.944Z,100648.53
2023-04-15T04:30:04.441Z,100654.91
2023-04-15T04:32:32.260Z,100652.56
2023-04-15T04:34:59.096Z,100655.53
2023-04-15T04:37:28.083Z,100658.16
2023-04-15T04:39:55.768Z,100659.81
2023-04-15T04:42:22.759Z,100668.50
2023-04-15T04:44:49.431Z,100681.06
2023-04-15T04:47:16.452Z,100679.41
2023-04-15T04:49:43.070Z,100676.19
2023-04-15T04:52:09.711Z,100681.03
2023-04-15T04:54:37.219Z,100679.34
2023-04-15T04:57:04.261Z,100693.53
2023-04-15T04:59:32.632Z,100690.94
2023-04-15T05:01:59.415Z,100693.53
2023-04-15T05:04:26.518Z,100708.53
2023-04-15T05:06:53.285Z,100706.69
2023-04-15T05:09:20.037Z,100708.75
2023-04-15T05:11:46.689Z,100719.41
2023-04-15T05:14:13.414Z,100710.69
2023-04-15T05:16:41.495Z,100718.59
2023-04-15T05:19:08.196Z,100724.44
2023-04-15T05:21:34.913Z,100732.34
2023-04-15T05:24:01.698Z,100742.03
2023-04-15T05:26:28.801Z,100743.88
2023-04-15T05:28:55.550Z,100750.47
2023-04-15T05:31:22.369Z,100751.31
2023-04-15T05:33:49.157Z,100746.34
2023-04-15T05:36:17.447Z,100761.13
2023-04-15T05:38:44.143Z,100755.22
2023-04-15T05:41:11.197Z,100765.25
2023-04-15T05:43:37.931Z,100767.81
2023-04-15T05:46:04.706Z,100778.22
2023-04-15T05:48:31.817Z,100772.59
2023-04-15T05:50:58.659Z,100776.75
2023-04-15T05:53:25.666Z,100782.81
2023-04-15T05:55:52.447Z,100785.50
2023-04-15T05:58:19.092Z,100797.50
2023-04-15T06:00:46.241Z,100799.94
2023-04-15T06:03:13.421Z,100800.06
2023-04-15T06:05:40.698Z,100811.19
2023-04-15T06:08:07.462Z,100809.97
2023-04-15T06:10:36.831Z,100826.28
2023-04-15T06:13:04.254Z,100830.78
2023-04-15T06:15:31.855Z,100829.28
2023-04-15T06:17:58.677Z,100839.53
2023-04-15T06:20:25.569Z,100843.63
2023-04-15T06:22:52.286Z,100840.78
2023-04-15T06:25:19.156Z,100847.25
2023-04-15T06:27:46.046Z,100859.09
2023-04-15T06:30:14.153Z,100865.41
2023-04-15T06:32:41.731Z,100863.22
2023-04-15T06:35:09.062Z,100868.25
2023-04-15T06:37:35.699Z,100855.53
2023-04-15T06:40:02.513Z,100871.75
2023-04-15T06:42:32.087Z,100873.47
2023-04-15T06:44:58.687Z,100880.03
2023-04-15T06:47:26.213Z,100889.53
2023-04-15T06:49:53.284Z,100886.34
2023-04-15T06:52:20.027Z,100887.81
2023-04-15T06:54:47.076Z,100889.91
2023-04-15T06:57:13.924Z,100894.44
2023-04-15T06:59:43.571Z,100903.97
2023-04-15T07:02:13.843Z,100907.28
2023-04-15T07:04:41.279Z,100903.28
2023-04-15T07:07:09.172Z,100909.75
2023-04-15T07:09:36.112Z,100909.00
2023-04-15T07:12:03.013Z,100918.66
2023-04-15T07:14:30.018Z,100919.72
2023-04-15T07:16:57.809Z,100924.50
2023-04-15T07:19:24.590Z,100922.88
2023-04-15T07:21:51.384Z,100927.72
2023-04-15T07:24:21.426Z,100928.75
2023-04-15T07:26:49.300Z,100931.59
2023-04-15T07:29:16.089Z,100938.59
2023-04-15T07:31:43.329Z,100937.56
2023-04-15T07:34:10.791Z,100945.28
2023-04-15T07:36:37.550Z,100958.84
2023-04-15T07:39:04.382Z,100953.63
2023-04-15T07:41:32.413Z,100963.03
2023-04-15T07:43:59.044Z,100963.38
2023-04-15T07:46:27.554Z,100964.03
2023-04-15T07:48:54.321Z,100971.94
2023-04-15T07:51:21.549Z,100978.44
2023-04-15T07:53:50.397Z,100975.91
2023-04-15T07:56:19.396Z,100990.66
2023-04-15T07:58:48.823Z,100997.53
2023-04-15T08:01:15.527Z,101001.97
2023-04-15T08:03:43.093Z,100988.94
2023-04-15T08:06:09.955Z,101016.38
2023-04-15T08:08:36.696Z,101008.22
2023-04-15T08:11:03.398Z,101012.84
2023-04-15T08:13:29.992Z,101015.25
2023-04-15T08:16:34.702Z,101017.28
2023-04-15T08:19:01.911Z,101021.81
2023-04-15T08:21:31.130Z,101027.38
2023-04-15T08:23:57.981Z,101026.56
2023-04-15T08:26:24.561Z,101041.97
2023-04-15T08:28:52.813Z,101040.03
2023-04-15T08:31:20.095Z,101032.81
2023-04-15T08:33:46.909Z,101037.50
2023-04-15T08:36:14.069Z,101042.19
2023-04-15T08:38:42.195Z,101053.78
2023-04-15T08:41:25.175Z,101054.84
2023-04-15T08:44:02.083Z,101051.34
2023-04-15T08:46:30.216Z,101059.75
2023-04-15T08:48:58.467Z,101061.88
2023-04-15T08:51:25.186Z,101063.38
2023-04-15T08:53:53.151Z,101070.03
2023-04-15T08:56:23.312Z,101076.25
2023-04-15T08:58:51.159Z,101077.50
2023-04-15T09:01:19.442Z,101077.44
2023-04-15T09:03:49.351Z,101081.13
2023-04-15T09:06:19.289Z,101091.53
2023-04-15T09:08:46.196Z,101103.28
2023-04-15T09:11:13.454Z,101104.53
2023-04-15T09:13:40.477Z,101108.59
2023-04-15T09:16:08.518Z,101115.97
2023-04-15T09:18:36.742Z,101122.44
2023-04-15T09:21:16.482Z,101129.09
2023-04-15T09:24:01.163Z,101121.38
2023-04-15T09:26:36.882Z,101116.91
2023-04-15T09:29:08.404Z,101126.88
2023-04-15T09:31:37.700Z,101128.41
2023-04-15T09:34:04.661Z,101133.59
2023-04-15T09:36:56.908Z,101132.78
2023-04-15T09:39:23.791Z,101135.44
2023-04-15T09:42:08.018Z,101145.44
2023-04-15T09:44:34.864Z,101137.72
2023-04-15T09:47:02.131Z,101142.22
2023-04-15T09:49:30.270Z,101153.63
2023-04-15T09:52:06.336Z,101156.03
2023-04-15T09:54:35.426Z,101156.63
2023-04-15T09:57:07.301Z,101165.72
2023-04-15T09:59:34.475Z,101153.63
2023-04-15T10:02:05.425Z,101160.06
2023-04-15T10:04:35.602Z,101155.81
2023-04-15T10:07:05.178Z,101161.09
2023-04-15T10:09:33.699Z,101170.28
2023-04-15T10:12:01.183Z,101175.63
2023-04-15T10:14:32.595Z,101170.91
2023-04-15T10:17:03.212Z,101185.44
2023-04-15T10:19:33.693Z,101178.63
2023-04-15T10:22:01.094Z,101180.66
2023-04-15T10:24:28.415Z,101178.81
2023-04-15T10:26:55.611Z,101180.44
2023-04-15T10:29:25.635Z,101172.88
2023-04-15T10:31:55.627Z,101181.75
2023-04-15T10:34:24.112Z,101181.13
2023-04-15T10:36:53.920Z,101186.41
2023-04-15T10:39:40.929Z,101185.94
2023-04-15T10:42:12.748Z,101187.84
2023-04-15T10:44:43.108Z,101193.50
2023-04-15T10:47:19.875Z,101189.16
2023-04-15T10:49:59.952Z,101188.53
2023-04-15T10:52:33.460Z,101190.69
2023-04-15T10:55:17.692Z,101198.56
2023-04-15T10:57:44.974Z,101204.44
2023-04-15T11:00:13.440Z,101192.91
2023-04-15T11:02:42.621Z,101216.22
2023-04-15T11:05:11.486Z,101219.06
2023-04-15T11:07:44.204Z,101214.16
2023-04-15T11:10:13.877Z,101223.22
2023-04-15T11:12:42.452Z,101225.94
2023-04-15T11:15:29.428Z,101230.09
2023-04-15T11:18:00.986Z,101215.97
2023-04-15T11:20:27.852Z,101229.34
2023-04-15T11:23:14.800Z,101225.50
2023-04-15T11:25:44.358Z,101228.88
2023-04-15T11:28:14.924Z,101225.75
2023-04-15T11:30:42.589Z,101232.00
2023-04-15T11:33:18.045Z,101237.16
2023-04-15T11:35:44.850Z,101230.50
2023-04-15T11:38:14.277Z,101229.56
2023-04-15T11:40:45.278Z,101237.41
2023-04-15T11:43:24.431Z,101245.03
2023-04-15T11:46:02.116Z,101243.41
2023-04-15T11:48:33.381Z,101252.06
2023-04-15T11:51:04.300Z,101254.50
2023-04-15T11:53:38.922Z,101255.75
2023-04-15T11:56:07.157Z,101248.38
2023-04-15T11:58:39.750Z,101247.16
2023-04-15T12:01:07.529Z,101256.66
2023-04-15T12:03:38.854Z,101248.59
2023-04-15T12:06:25.075Z,101254.03
2023-04-15T12:08:55.372Z,101265.84
2023-04-15T12:11:31.483Z,101256.28
2023-04-15T12:14:12.866Z,101264.28
2023-04-15T12:17:01.666Z,101286.19
2023-04-15T12:19:36.661Z,101270.84
2023-04-15T12:22:06.729Z,101276.56
2023-04-15T12:24:35.106Z,101271.31
2023-04-15T12:27:04.155Z,101284.69
2023-04-15T12:29:34.374Z,101293.50
2023-04-15T12:32:13.681Z,101298.22
2023-04-15T12:34:42.453Z,101302.72
2023-04-15T12:37:11.914Z,101298.47
2023-04-15T12:39:40.675Z,101290.81
2023-04-15T12:42:08.917Z,101299.81
2023-04-15T12:44:39.383Z,101317.31
2023-04-15T12:47:07.938Z,101315.22
2023-04-15T12:49:35.536Z,101313.47
2023-04-15T12:52:03.288Z,101321.75
2023-04-15T12:54:31.432Z,101324.81
2023-04-15T12:56:58.790Z,101320.69
2023-04-15T12:59:28.217Z,101323.44
2023-04-15T13:01:56.495Z,101324.69
2023-04-15T13:04:27.687Z,101334.47
2023-04-15T13:06:54.469Z,101338.09
2023-04-15T13:09:25.071Z,101334.25
2023-04-15T13:11:52.755Z,101341.19
2023-04-15T13:14:19.829Z,101348.13
2023-04-15T13:16:46.635Z,101352.53
2023-04-15T13:19:13.252Z,101346.84
2023-04-15T13:21:39.947Z,101344.91
2023-04-15T13:24:07.235Z,101356.69
2023-04-15T13:26:34.189Z,101361.97
2023-04-15T13:29:03.780Z,101360.06
2023-04-15T13:31:31.129Z,101374.75
2023-04-15T13:33:58.166Z,101360.56
2023-04-15T13:36:24.970Z,101356.66
2023-04-15T13:38:54.414Z,101374.13
2023-04-15T13:41:21.401Z,101385.16
2023-04-15T13:43:49.420Z,101383.22
2023-04-15T13:46:16.665Z,101378.03
2023-04-15T13:48:43.750Z,101397.38
2023-04-15T13:51:10.735Z,101400.38
2023-04-15T13:53:38.264Z,101397.00
2023-04-15T13:56:09.168Z,101395.06
2023-04-15T13:58:37.517Z,101405.00
2023-04-15T14:01:07.130Z,101412.84
2023-04-15T14:03:37.488Z,101420.63
2023-04-15T14:06:05.773Z,101421.53
2023-04-15T14:08:32.718Z,101408.56
2023-04-15T14:11:02.139Z,101419.34
2023-04-15T14:13:29.244Z,101424.31
2023-04-15T14:15:57.084Z,101430.19
2023-04-15T14:18:24.190Z,101432.25
2023-04-15T14:20:54.683Z,101429.78
2023-04-15T14:23:28.967Z,101428.28
2023-04-15T14:25:59.127Z,101427.28
2023-04-15T14:28:28.314Z,101421.69
2023-04-15T14:30:55.463Z,101441.88
2023-04-15T14:33:22.360Z,101449.38
2023-04-15T14:35:51.723Z,101444.84
2023-04-15T14:38:24.850Z,101437.84
2023-04-15T14:40:51.854Z,101445.56
2023-04-15T14:43:19.396Z,101469.41
2023-04-15T14:45:46.226Z,101453.75
2023-04-15T14:48:14.015Z,101461.13
2023-04-15T14:50:41.129Z,101451.03
2023-04-15T14:53:07.904Z,101470.34
2023-04-15T14:55:34.726Z,101469.00
2023-04-15T14:58:04.826Z,101473.50
2023-04-15T15:00:32.186Z,101476.47
2023-04-15T15:02:59.163Z,101480.66
2023-04-15T15:05:29.820Z,101485.22
2023-04-15T15:07:56.530Z,101488.69
2023-04-15T15:10:32.717Z,101512.72
2023-04-15T15:13:11.143Z,101495.34
2023-04-15T15:15:39.133Z,101493.72
2023-04-15T15:18:08.415Z,101493.78
2023-04-15T15:20:36.133Z,101488.22
2023-04-15T15:23:03.307Z,101500.81
2023-04-15T15:25:30.495Z,101500.91
2023-04-15T15:27:59.117Z,101494.03
2023-04-15T15:30:25.932Z,101505.97
2023-04-15T15:32:53.796Z,101529.97
2023-04-15T15:35:24.777Z,101524.03
2023-04-15T15:37:52.374Z,101551.97
2023-04-15T15:40:19.290Z,101533.03
2023-04-15T15:42:47.614Z,101535.94
2023-04-15T15:45:14.863Z,101551.66
2023-04-15T15:47:41.798Z,101538.53
2023-04-15T15:50:09.111Z,101552.25
2023-04-15T15:52:39.311Z,101553.34
2023-04-15T15:55:06.562Z,101550.41
2023-04-15T15:57:33.443Z,101558.03
2023-04-15T16:00:10.624Z,101554.00
2023-04-15T16:05:19.296Z,101575.47
2023-04-15T16:07:46.023Z,101574.47
2023-04-15T16:10:14.111Z,101601.66
2023-04-15T16:12:44.764Z,101584.06
2023-04-15T16:15:12.427Z,101572.88
2023-04-15T16:17:40.410Z,101588.06
2023-04-15T16:20:07.763Z,101579.22
2023-04-15T16:22:40.862Z,101592.66
2023-04-15T16:25:11.402Z,101596.53
2023-04-15T16:30:09.785Z,101614.28
2023-04-15T16:32:38.088Z,101611.47
2023-04-15T16:35:05.160Z,101615.38
2023-04-15T16:37:33.371Z,101611.84
2023-04-15T16:40:03.329Z,101634.09
2023-04-15T16:42:31.365Z,101625.97
2023-04-15T16:45:00.365Z,101643.88
2023-04-15T16:47:27.119Z,101633.09
2023-04-15T16:49:54.752Z,101644.69
2023-04-15T16:52:22.760Z,101644.28
2023-04-15T16:54:51.063Z,101642.81
2023-04-15T16:57:17.991Z,101660.31
2023-04-15T16:59:44.896Z,101661.50
2023-04-15T17:02:13.257Z,101654.94
2023-04-15T17:04:40.272Z,101655.31
2023-04-15T17:07:08.854Z,101661.28
2023-04-15T17:09:36.361Z,101667.44
2023-04-15T17:12:04.726Z,101674.88
2023-04-15T17:14:33.143Z,101662.97
2023-04-15T17:17:03.525Z,101675.91
2023-04-15T17:19:32.068Z,101659.56
2023-04-15T17:22:02.279Z,101669.00
2023-04-15T17:24:29.728Z,101676.69
2023-04-15T17:26:56.934Z,101684.75
2023-04-15T17:29:30.291Z,101686.22
2023-04-15T17:31:57.614Z,101690.25
2023-04-15T17:34:24.442Z,101678.19
2023-04-15T17:36:53.549Z,101684.47
2023-04-15T17:39:20.789Z,101701.50
2023-04-15T17:41:47.554Z,101696.16
2023-04-15T17:44:22.396Z,101696.97
2023-04-15T17:46:54.034Z,101712.19
2023-04-15T17:49:20.875Z,101706.13
2023-04-15T17:51:48.809Z,101706.44
2023-04-15T17:54:15.581Z,101709.41
2023-04-15T17:56:42.273Z,101711.16
2023-04-15T17:59:09.042Z,101716.44
2023-04-15T18:01:35.868Z,101712.66
2023-04-15T18:04:03.418Z,101704.84
2023-04-15T18:06:31.420Z,101714.16
2023-04-15T18:08:58.012Z,101729.91
2023-04-15T18:11:24.750Z,101731.91
2023-04-15T18:13:52.970Z,101729.72
2023-04-15T18:16:20.092Z,101727.63
2023-04-15T18:18:46.854Z,101736.72
2023-04-15T18:21:15.888Z,101729.03
2023-04-15T18:23:42.802Z,101727.75
2023-04-15T18:26:10.108Z,101741.81
2023-04-15T18:28:39.152Z,101754.03
2023-04-15T18:31:06.350Z,101737.97
2023-04-15T18:33:33.202Z,101743.94
2023-04-15T18:36:02.076Z,101749.69
2023-04-15T18:38:28.895Z,101758.00
2023-04-15T18:40:56.141Z,101745.31
2023-04-15T18:43:24.194Z,101771.63
2023-04-15T18:45:53.463Z,101757.41
2023-04-15T18:48:20.568Z,101768.25
2023-04-15T18:50:48.030Z,101790.75
2023-04-15T18:53:15.627Z,101785.25
2023-04-15T18:55:42.535Z,101783.56
2023-04-15T18:58:09.417Z,101781.06
2023-04-15T19:00:40.595Z,101797.03
2023-04-15T19:03:09.793Z,101789.78
2023-04-15T19:05:36.931Z,101793.50
2023-04-15T19:08:03.875Z,101804.38
2023-04-15T19:10:31.319Z,101801.59
2023-04-15T19:12:58.063Z,101807.75
2023-04-15T19:15:25.140Z,101799.69
2023-04-15T19:17:51.976Z,101812.97
2023-04-15T19:20:19.216Z,101822.31
2023-04-15T19:22:52.695Z,101825.59
2023-04-15T19:25:19.719Z,101824.09
2023-04-15T19:27:46.406Z,101832.75
2023-04-15T19:30:33.244Z,101849.47
2023-04-15T19:33:01.585Z,101843.59
2023-04-15T19:35:28.298Z,101849.97
2023-04-15T19:37:56.610Z,101845.28
2023-04-15T19:40:23.716Z,101852.22
2023-04-15T19:42:57.576Z,101841.44
2023-04-15T19:45:24.271Z,101846.31
2023-04-15T19:47:57.957Z,101848.00
2023-04-15T19:50:28.977Z,101858.00
2023-04-15T19:52:56.067Z,101861.03
2023-04-15T19:55:22.985Z,101869.59
2023-04-15T19:57:49.968Z,101868.59
2023-04-15T20:00:17.586Z,101864.94
2023-04-15T20:02:44.432Z,101860.81
2023-04-15T20:05:11.164Z,101854.38
2023-04-15T20:07:39.635Z,101859.94
2023-04-15T20:10:12.222Z,101861.69
2023-04-15T20:12:50.029Z,101857.38
2023-04-15T20:15:19.289Z,101865.72
2023-04-15T20:17:46.217Z,101860.06
2023-04-15T20:20:12.913Z,101860.13
2023-04-15T20:22:41.407Z,101870.09
2023-04-15T20:25:08.849Z,101872.91
2023-04-15T20:27:35.759Z,101866.53
2023-04-15T20:30:04.698Z,101871.59
2023-04-15T20:32:35.249Z,101878.28
2023-04-15T20:35:03.818Z,101870.66
2023-04-15T20:37:33.181Z,101869.81
2023-04-15T20:40:01.219Z,101871.00
2023-04-15T20:42:28.153Z,101867.47
2023-04-15T20:44:54.880Z,101878.34
2023-04-15T20:47:21.605Z,101879.47
2023-04-15T20:49:48.313Z,101880.78
2023-04-15T20:52:16.558Z,101874.34
2023-04-15T20:54:43.223Z,101882.28
2023-04-15T20:57:09.838Z,101885.66
2023-04-15T20:59:36.563Z,101880.22
2023-04-15T21:02:03.266Z,101881.91
2023-04-15T21:04:30.154Z,101886.94
2023-04-15T21:06:56.853Z,101886.56
2023-04-15T21:09:26.805Z,101898.84
2023-04-15T21:12:01.150Z,101894.16
2023-04-15T21:14:28.901Z,101898.59
2023-04-15T21:16:57.715Z,101891.84
2023-04-15T21:19:24.438Z,101886.91
2023-04-15T21:21:50.986Z,101894.09
2023-04-15T21:24:19.716Z,101900.22
2023-04-15T21:26:46.656Z,101897.06
2023-04-15T21:29:13.477Z,101890.84
2023-04-15T21:31:40.439Z,101901.41
2023-04-15T21:34:07.481Z,101895.91
2023-04-15T21:36:34.313Z,101903.88
2023-04-15T21:39:02.712Z,101908.91
2023-04-15T21:41:29.879Z,101908.09
2023-04-15T21:43:56.781Z,101919.34
2023-04-15T21:46:25.675Z,101914.81
2023-04-15T21:49:00.235Z,101916.03
2023-04-15T21:51:27.699Z,101914.88
2023-04-15T21:53:54.259Z,101924.50
2023-04-15T21:56:23.218Z,101914.91
2023-04-15T21:58:49.984Z,101926.44
2023-04-15T22:01:17.012Z,101926.06
2023-04-15T22:03:44.087Z,101916.44
2023-04-15T22:06:11.296Z,101927.22
2023-04-15T22:08:48.364Z,101931.44
2023-04-15T22:11:26.237Z,101936.13
2023-04-15T22:13:59.468Z,101930.31
2023-04-15T22:16:29.005Z,101936.78
2023-04-15T22:18:56.045Z,101938.44
2023-04-15T22:21:23.295Z,101934.94
2023-04-15T22:23:51.093Z,101930.44
2023-04-15T22:26:17.731Z,101937.56
2023-04-15T22:28:44.299Z,101941.78
2023-04-15T22:31:11.208Z,101941.63
2023-04-15T22:33:38.775Z,101941.34
2023-04-15T22:36:05.829Z,101945.13
2023-04-15T22:38:32.542Z,101945.13
2023-04-15T22:40:59.346Z,101953.84
2023-04-15T22:43:27.378Z,101948.84
2023-04-15T22:45:55.133Z,101952.91
2023-04-15T22:48:22.593Z,101945.94
2023-04-15T22:50:49.789Z,101955.75
2023-04-15T22:53:17.548Z,101947.19
2023-04-15T22:55:46.678Z,101960.91
2023-04-15T22:58:13.820Z,101950.00
2023-04-15T23:00:40.843Z,101955.66
2023-04-15T23:03:07.699Z,101956.94
2023-04-15T23:05:34.538Z,101960.81
2023-04-15T23:08:01.619Z,101970.22
2023-04-15T23:10:28.677Z,101966.88
2023-04-15T23:12:55.361Z,101971.38
2023-04-15T23:15:22.169Z,101978.56
2023-04-15T23:17:48.840Z,101987.06
2023-04-15T23:20:16.269Z,101982.06
2023-04-15T23:22:43.274Z,101978.00
2023-04-15T23:25:09.944Z,101979.34
2023-04-15T23:27:36.809Z,101976.78
2023-04-15T23:30:04.170Z,101981.28
2023-04-15T23:32:31.028Z,101977.47
2023-04-15T23:34:57.702Z,101979.72
2023-04-15T23:37:24.293Z,101984.50
2023-04-15T23:39:51.001Z,101996.72
2023-04-15T23:42:17.553Z,101993.50
2023-04-15T23:44:44.932Z,101995.38
2023-04-15T23:47:11.564Z,101998.25
2023-04-15T23:49:40.890Z,101998.75
2023-04-15T23:52:07.568Z,101999.63
2023-04-15T23:54:34.452Z,101996.81
2023-04-15T23:57:02.323Z,101995.25
2023-04-15T23:59:29.556Z,101999.88
